Time;durP1;ratioP1;P1;durP2;ratioP2;P2;SDS_P1;SDS_P2;PMS_P1;PMS_P2;Temp;Humidity;BMP_temperature;BMP_pressure;BME280_temperature;BME280_humidity;BME280_pressure;Samples;Min_cycle;Max_cycle;Signal;HPM_P1;HPM_P2
2022/07/01 00:00:18;;;;;;;0.30;0.30;;;;;;;16.67;53.69;99224.69;4752906;30;20520;-88
2022/07/01 00:02:47;;;;;;;0.30;0.30;;;;;;;16.67;54.00;99230.97;4753131;30;20091;-90
2022/07/01 00:05:18;;;;;;;0.20;0.20;;;;;;;16.64;53.77;99228.00;4768140;30;20071;-89
2022/07/01 00:07:49;;;;;;;0.30;0.30;;;;;;;16.73;53.50;99231.75;4756562;30;20074;-90
2022/07/01 00:10:19;;;;;;;0.20;0.20;;;;;;;16.76;53.47;99235.81;4760044;30;20066;-89
2022/07/01 00:12:47;;;;;;;0.30;0.30;;;;;;;16.72;53.55;99230.13;4777462;30;20060;-90
2022/07/01 00:15:20;;;;;;;0.20;0.20;;;;;;;16.62;53.84;99235.63;4758987;30;20504;-89
2022/07/01 00:17:51;;;;;;;0.30;0.30;;;;;;;16.54;53.96;99230.75;4758985;30;20059;-88
2022/07/01 00:20:24;;;;;;;0.30;0.30;;;;;;;16.52;54.03;99232.94;4759798;30;20607;-90
2022/07/01 00:22:57;;;;;;;0.30;0.30;;;;;;;16.54;54.14;99228.03;4746471;30;20051;-93
2022/07/01 00:25:24;;;;;;;0.20;0.20;;;;;;;16.33;54.04;99214.47;4756561;30;20109;-90
2022/07/01 00:27:52;;;;;;;0.30;0.30;;;;;;;16.39;54.12;99226.97;4740631;30;20150;-90
2022/07/01 00:30:19;;;;;;;0.30;0.30;;;;;;;16.35;54.26;99225.91;4739527;30;20062;-91
2022/07/01 00:32:47;;;;;;;0.22;0.22;;;;;;;16.44;54.52;99237.84;4770547;30;20052;-91
2022/07/01 00:35:14;;;;;;;0.30;0.30;;;;;;;16.39;54.41;99237.06;4753656;30;20056;-89
2022/07/01 00:37:42;;;;;;;0.30;0.30;;;;;;;16.22;54.75;99216.41;4724608;30;20146;-89
2022/07/01 00:40:14;;;;;;;0.30;0.30;;;;;;;16.26;55.37;99238.47;4741705;30;20056;-88
2022/07/01 00:42:45;;;;;;;;;;;;;;;16.13;55.37;99241.75;4758521;30;20086;-88
2022/07/01 00:45:16;;;;;;;;;;;;;;;16.00;55.82;99235.78;4757780;30;20447;-88
2022/07/01 00:47:49;;;;;;;;;;;;;;;15.86;56.07;99237.44;4774035;30;19933;-89
2022/07/01 00:50:21;;;;;;;;;;;;;;;15.75;56.31;99242.06;4771714;30;19930;-89
2022/07/01 00:52:55;;;;;;;;;;;;;;;15.69;56.44;99236.88;4755984;30;19930;-89
2022/07/01 00:55:25;;;;;;;;;;;;;;;15.64;56.58;99234.94;4726041;30;20375;-91
2022/07/01 00:57:54;;;;;;;;;;;;;;;15.60;56.94;99242.84;4754688;30;19936;-91
2022/07/01 01:14:56;;;;;;;;;;;;;;;15.43;57.86;99246.94;5720482;23;21019;-89
2022/07/01 01:17:23;;;;;;;;;;;;;;;15.47;57.88;99251.56;4843082;29;20370;-90
2022/07/01 01:19:51;;;;;;;;;;;;;;;15.50;57.52;99253.72;4857459;29;19934;-88
2022/07/01 01:22:18;;;;;;;;;;;;;;;15.52;57.96;99248.84;4856819;29;20407;-89
2022/07/01 01:24:47;;;;;;;;;;;;;;;15.61;58.00;99255.34;4841182;29;19927;-91
2022/07/01 01:27:14;;;;;;;;;;;;;;;15.73;57.60;99254.31;4826029;29;20308;-90
2022/07/01 01:29:41;;;;;;;;;;;;;;;15.76;57.30;99243.69;4842289;29;19928;-88
2022/07/01 01:32:08;;;;;;;;;;;;;;;15.68;57.41;99249.66;4859567;29;19928;-90
2022/07/01 01:34:45;;;;;;;;;;;;;;;15.62;57.55;99248.00;4842349;29;19932;-88
2022/07/01 01:37:12;;;;;;;;;;;;;;;15.65;57.87;99243.94;4841813;29;20410;-89
2022/07/01 01:39:39;;;;;;;;;;;;;;;15.64;58.02;99247.75;4842992;29;19928;-88
2022/07/01 01:42:06;;;;;;;;;;;;;;;15.56;58.02;99249.91;4843686;29;19932;-90
2022/07/01 01:44:34;;;;;;;;;;;;;;;15.48;57.99;99255.09;4861124;29;20038;-90
2022/07/01 01:47:01;;;;;;;;;;;;;;;15.45;58.22;99258.34;4860924;29;19991;-91
2022/07/01 01:49:28;;;;;;;;;;;;;;;15.46;58.48;99252.63;4830581;29;19928;-90
2022/07/01 01:51:59;;;;;;;;;;;;;;;15.53;58.57;99255.09;4845301;29;19928;-85
2022/07/01 01:54:26;;;;;;;;;;;;;;;15.54;58.62;99257.53;4829598;29;19932;-84
2022/07/01 01:56:58;;;;;;;;;;;;;;;15.54;58.33;99259.44;4861602;29;19931;-92
2022/07/01 01:59:25;;;;;;;;;;;;;;;15.52;58.57;99257.00;4851966;29;19928;-87
2022/07/01 02:01:56;;;;;;;;;;;;;;;15.64;58.47;99253.19;4860023;29;19939;-86
2022/07/01 02:04:23;;;;;;;;;;;;;;;15.73;58.02;99252.41;4862146;29;20470;-86
2022/07/01 02:06:51;;;;;;;;;;;;;;;15.74;58.12;99251.31;4851648;29;19928;-86
2022/07/01 02:09:18;;;;;;;;;;;;;;;15.76;58.13;99257.31;4832133;29;19974;-87
2022/07/01 02:11:45;;;;;;;;;;;;;;;15.72;58.07;99258.09;4864884;29;19934;-85
2022/07/01 02:14:12;;;;;;;;;;;;;;;15.74;58.18;99258.66;4866260;29;19928;-87
2022/07/01 02:16:39;;;;;;;;;;;;;;;15.76;58.50;99256.50;4854704;29;19934;-88
2022/07/01 02:19:06;;;;;;;;;;;;;;;15.81;58.27;99259.22;4848173;29;20120;-85
2022/07/01 02:21:33;;;;;;;;;;;;;;;15.87;58.02;99260.81;4870731;29;19974;-87
2022/07/01 02:24:00;;;;;;;;;;;;;;;15.93;58.11;99258.94;4857281;29;20387;-88
2022/07/01 02:26:27;;;;;;;;;;;;;;;15.93;57.94;99254.31;4859894;29;19935;-88
2022/07/01 02:28:54;;;;;;;;;;;;;;;15.98;57.78;99258.94;4851536;29;19928;-87
2022/07/01 02:31:23;;;;;;;;;;;;;;;16.01;58.12;99259.19;4829336;29;19988;-88
2022/07/01 02:33:50;;;;;;;;;;;;;;;16.03;57.99;99262.47;4860498;29;19928;-87
2022/07/01 02:36:17;;;;;;;;;;;;;;;16.12;57.79;99264.63;4844359;29;20327;-87
2022/07/01 02:38:44;;;;;;;;;;;;;;;16.16;57.88;99273.88;4829935;29;19964;-88
2022/07/01 02:41:11;;;;;;;;;;;;;;;16.20;58.09;99266.78;4844466;29;19928;-88
2022/07/01 02:43:39;;;;;;;;;;;;;;;16.31;57.77;99268.41;4861200;29;20027;-88
2022/07/01 02:46:06;;;;;;;;;;;;;;;16.39;57.29;99281.47;4828418;29;19936;-89
2022/07/01 02:48:33;;;;;;;;;;;;;;;16.47;57.09;99286.34;4841132;29;19928;-87
2022/07/01 02:51:00;;;;;;;;;;;;;;;16.54;57.02;99291.50;4842472;29;19957;-88
2022/07/01 02:53:27;;;;;;;;;;;;;;;16.64;56.70;99302.38;4842307;29;20024;-89
2022/07/01 02:55:54;;;;;;;;;;;;;;;16.72;55.97;99290.09;4842444;29;19929;-88
2022/07/01 02:58:22;;;;;;;;;;;;;;;16.79;54.74;99301.53;4845614;29;19940;-88
2022/07/01 03:00:52;;;;;;;;;;;;;;;16.85;54.26;99299.59;4852958;29;19958;-88
2022/07/01 03:03:19;;;;;;;;;;;;;;;16.88;53.59;99308.03;4843605;29;19928;-88
2022/07/01 03:05:47;;;;;;;;;;;;;;;16.93;53.61;99304.47;4860302;29;19935;-86
2022/07/01 03:08:15;;;;;;;;;;;;;;;16.97;53.30;99305.56;4859806;29;19999;-88
2022/07/01 03:10:42;;;;;;;;;;;;;;;17.02;53.25;99304.72;4859892;29;19935;-86
2022/07/01 03:13:09;;;;;;;;;;;;;;;17.10;52.74;99309.59;4844048;29;19934;-85
2022/07/01 03:23:02;;;;;;;;;;;;;;;17.29;52.10;99318.78;5423470;24;19929;-88
2022/07/01 03:25:29;;;;;;;;;;;;;;;17.35;51.68;99321.47;4754037;30;20023;-85
2022/07/01 03:27:58;;;;;;;;;;;;;;;17.42;51.56;99324.69;4769511;30;19930;-87
2022/07/01 03:30:25;;;;;;;;;;;;;;;17.54;51.10;99322.41;4770085;30;19929;-88
2022/07/01 03:33:17;;;;;;;;;;;;;;;17.56;50.72;99322.97;4769630;30;19929;-87
2022/07/01 03:35:48;;;;;;;;;;;;;;;17.59;50.91;99325.13;4753332;30;19929;-88
2022/07/01 03:38:15;;;;;;;;;;;;;;;17.65;50.88;99326.75;4769366;30;19930;-88
2022/07/01 03:40:42;;;;;;;;;;;;;;;17.71;50.72;99320.13;4769728;30;19959;-88
2022/07/01 03:43:09;;;;;;;;;;;;;;;17.73;50.41;99320.66;4770830;30;20441;-88
2022/07/01 03:45:36;;;;;;;;;;;;;;;17.74;50.40;99321.47;4771008;30;19930;-88
2022/07/01 03:48:03;;;;;;;;;;;;;;;17.77;50.39;99323.63;4769168;30;19930;-88
2022/07/01 03:50:30;;;;;;;;;;;;;;;17.81;50.12;99329.38;4768212;30;20386;-84
2022/07/01 03:55:46;;;;;;;;;;;;;;;17.89;49.66;99324.13;4765934;30;19936;-87
2022/07/01 03:58:14;;;;;;;;;;;;;;;17.95;48.86;99338.53;4750658;30;20398;-86
2022/07/01 04:00:41;;;;;;;;;;;;;;;17.99;48.36;99339.63;4735678;30;19968;-87
2022/07/01 04:03:08;;;;;;;;;;;;;;;18.02;47.68;99351.88;4765725;30;20027;-84
2022/07/01 04:05:36;;;;;;;;;;;;;;;18.02;46.69;99339.03;4735005;30;19930;-87
2022/07/01 04:08:03;;;;;;;;;;;;;;;18.01;46.33;99345.59;4765979;30;19929;-90
2022/07/01 04:10:37;;;;;;;;;;;;;;;17.96;46.44;99340.19;4739701;30;19937;-93
2022/07/01 04:13:04;;;;;;;;;;;;;;;18.00;46.43;99343.97;4769310;30;19929;-91
2022/07/01 04:15:51;;;;;;;;;;;;;;;17.98;46.44;99338.00;4769296;30;19975;-91
2022/07/01 04:18:19;;;;;;;;;;;;;;;18.03;46.02;99348.88;4753181;30;20385;-90
2022/07/01 04:22:32;;;;;;;;;;;;;;;18.01;45.81;99353.81;4771565;30;19936;-93
2022/07/01 04:23:35;;;;;;;;;;;;;;;18.02;45.90;99360.88;4756917;30;19930;-91
2022/07/01 04:26:02;;;;;;;;;;;;;;;18.10;45.92;99354.00;4769180;30;20410;-90
2022/07/01 04:28:53;;;;;;;;;;;;;;;18.16;45.92;99367.34;4740914;30;20012;-89
2022/07/01 04:31:20;;;;;;;;;;;;;;;18.25;45.78;99361.25;4768968;30;19937;-90
2022/07/01 04:33:52;;;;;;;;;;;;;;;18.25;45.28;99366.72;4753436;30;19930;-91
2022/07/01 04:36:19;;;;;;;;;;;;;;;18.25;44.98;99372.19;4769110;30;20394;-91
2022/07/01 04:38:46;;;;;;;;;;;;;;;18.25;44.76;99372.97;4739591;30;20009;-90
2022/07/01 04:43:59;;;;;;;;;;;;;;;18.29;43.38;99371.31;4773337;30;20317;-90
2022/07/01 04:46:26;;;;;;;;;;;;;;;18.31;43.39;99369.13;4773641;30;19982;-89
2022/07/01 04:48:56;;;;;;;;;;;;;;;18.38;42.70;99374.25;4773867;30;19972;-90
2022/07/01 04:51:23;;;;;;;;;;;;;;;18.40;43.06;99377.50;4786685;29;19921;-90
2022/07/01 04:53:50;;;;;;;;;;;;;;;18.47;42.84;99380.72;4777750;29;19914;-91
2022/07/01 04:56:18;;;;;;;;;;;;;;;18.48;42.79;99382.34;4777609;29;19914;-88
2022/07/01 04:58:45;;;;;;;;;;;;;;;18.56;42.83;99379.00;4792298;29;19914;-90
2022/07/01 05:01:12;;;;;;;;;;;;;;;18.65;42.32;99376.44;4757131;30;19983;-89
2022/07/01 05:03:40;;;;;;;;;;;;;;;18.82;42.07;99381.50;4774702;29;19937;-91
2022/07/01 05:06:08;;;;;;;;;;;;;;;18.84;41.21;99382.03;4768192;30;19973;-87
2022/07/01 05:08:35;;;;;;;;;;;;;;;18.81;40.89;99380.69;4743865;30;20364;-88
2022/07/01 05:11:02;;;;;;;;;;;;;;;18.95;41.10;99380.00;4730137;30;19929;-92
2022/07/01 05:13:29;;;;;;;;;;;;;;;18.85;39.44;99383.66;4749412;30;19930;-90
2022/07/01 05:15:56;;;;;;;;;;;;;;;18.78;39.48;99377.72;4752597;30;19995;-92
2022/07/01 05:23:58;;;;;;;;;;;;;;;18.87;39.14;99377.91;4438116;29;10000298;-86
2022/07/01 05:26:25;;;;;;;;;;;;;;;18.99;39.18;99378.31;4752028;30;20362;-87
2022/07/01 05:28:53;;;;;;;;;;;;;;;19.00;39.14;99382.69;4768765;30;19929;-88
2022/07/01 05:31:20;;;;;;;;;;;;;;;18.99;39.00;99381.88;4767476;30;19991;-87
2022/07/01 05:33:47;;;;;;;;;;;;;;;19.08;39.44;99375.75;4727329;30;20410;-87
2022/07/01 05:36:14;;;;;;;;;;;;;;;19.22;39.52;99374.75;4767449;30;19953;-85
2022/07/01 05:38:42;;;;;;;;;;;;;;;19.29;38.77;99377.13;4751691;30;20009;-87
2022/07/01 05:41:09;;;;;;;;;;;;;;;19.37;38.48;99373.75;4755819;30;19930;-88
2022/07/01 05:43:36;;;;;;;;;;;;;;;19.46;38.17;99369.22;4760761;30;19937;-88
2022/07/01 05:46:03;;;;;;;;;;;;;;;19.45;37.28;99377.75;4761288;30;19979;-86
2022/07/01 05:48:30;;;;;;;;;;;;;;;19.34;37.15;99379.78;4746972;30;20024;-87
2022/07/01 05:50:58;;;;;;;;;;;;;;;19.36;37.26;99374.84;4760683;30;20009;-86
2022/07/01 05:53:25;;;;;;;;;;;;;;;19.45;37.27;99377.75;4744998;30;20429;-87
2022/07/01 05:55:53;;;;;;;;;;;;;;;19.53;36.91;99370.81;4752097;30;19977;-87
2022/07/01 05:58:21;;;;;;;;;;;;;;;19.58;36.99;99376.22;4746402;30;19937;-86
2022/07/01 06:00:57;;;;;;;;;;;;;;;19.63;37.05;99366.00;4749101;30;20442;-85
2022/07/01 06:03:40;;;;;;;;;;;;;;;19.80;37.06;99381.13;4723291;30;19930;-87
2022/07/01 06:06:07;;;;;;;;;;;;;;;19.94;36.81;99386.69;4734013;30;19934;-87
2022/07/01 06:15:50;;;;;;;;;;;;;;;19.86;36.10;99375.28;4662665;30;20414;-86
2022/07/01 06:18:17;;;;;;;;;;;;;;;19.84;35.86;99379.44;4679572;30;20400;-87
2022/07/01 06:21:39;;;;;;;;;;;;;;;19.86;36.08;99377.22;4665739;30;19931;-87
2022/07/01 06:24:00;;;;;;;;;;;;;;;19.96;35.69;99378.97;4679474;30;19931;-88
2022/07/01 06:26:33;;;;;;;;;;;;;;;19.95;35.35;99386.38;4680556;30;19932;-88
2022/07/01 06:29:00;;;;;;;;;;;;;;;19.97;35.08;99384.16;4680165;30;19939;-86
2022/07/01 06:31:28;;;;;;;;;;;;;;;20.02;34.85;99386.81;4680103;30;19990;-86
2022/07/01 06:33:57;;;;;;;;;;;;;;;20.11;34.73;99387.78;4683657;30;19931;-87
2022/07/01 06:36:25;;;;;;;;;;;;;;;20.29;34.27;99393.53;4681575;30;19931;-86
2022/07/01 06:38:56;;;;;;;;;;;;;;;20.25;33.62;99389.75;4678838;30;19931;-86
2022/07/01 06:41:27;;;;;;;;;;;;;;;20.13;33.95;99390.22;4667047;30;19931;-86
2022/07/01 06:43:54;;;;;;;;;;;;;;;20.26;33.99;99383.97;4668029;30;20408;-87
2022/07/01 06:46:21;;;;;;;;;;;;;;;20.30;33.11;99400.63;4682690;30;19939;-86
2022/07/01 06:48:48;;;;;;;;;;;;;;;20.42;33.00;99391.94;4683420;30;19931;-86
2022/07/01 06:51:18;;;;;;;;;;;;;;;20.42;32.37;99400.16;4682799;30;19935;-87
2022/07/01 06:53:52;;;;;;;;;;;;;;;20.47;32.25;99397.31;4681734;30;19938;-86
2022/07/01 06:56:22;;;;;;;;;;;;;;;20.43;32.49;99399.03;4681648;30;20001;-86
2022/07/01 06:58:51;;;;;;;;;;;;;;;20.53;32.50;99401.59;4682820;30;19943;-87
2022/07/01 07:01:18;;;;;;;;;;;;;;;20.57;32.81;99402.66;4682832;30;20308;-85
2022/07/01 07:03:46;;;;;;;;;;;;;;;20.51;32.15;99401.91;4679758;30;20001;-84
2022/07/01 07:06:13;;;;;;;;;;;;;;;20.49;31.91;99414.28;4638044;30;19932;-86
2022/07/01 07:08:40;;;;;;;;;;;;;;;20.49;31.29;99412.38;4666593;30;19935;-85
2022/07/01 07:11:10;;;;;;;;;;;;;;;20.59;31.13;99408.66;4665592;30;20033;-92
2022/07/01 07:13:37;;;;;;;;;;;;;;;20.58;30.56;99407.03;4662245;30;19989;-85
2022/07/01 07:16:04;;;;;;;;;;;;;;;20.60;30.51;99409.47;4676990;30;20013;-84
2022/07/01 07:18:34;;;;;;;;;;;;;;;20.56;29.77;99409.28;4682691;30;19931;-85
2022/07/01 07:21:03;;;;;;;;;;;;;;;20.67;29.67;99405.22;4667074;30;19942;-83
2022/07/01 07:23:30;;;;;;;;;;;;;;;20.77;29.67;99409.72;4681152;30;19970;-85
2022/07/01 07:26:00;;;;;;;;;;;;;;;20.86;29.25;99407.06;4667761;30;19931;-84
2022/07/01 07:28:27;;;;;;;;;;;;;;;20.70;29.08;99415.59;4682176;30;19970;-84
2022/07/01 07:30:53;;;;;;;;;;;;;;;20.73;29.02;99419.66;4667309;30;19938;-84
2022/07/01 07:33:20;;;;;;;;;;;;;;;20.85;29.02;99413.69;4683312;30;19931;-85
2022/07/01 07:35:47;;;;;;;;;;;;;;;20.89;28.56;99412.78;4686913;30;19982;-85
2022/07/01 07:38:14;;;;;;;;;;;;;;;20.90;28.94;99410.84;4687308;30;19958;-84
2022/07/01 07:40:41;;;;;;;;;;;;;;;20.83;28.56;99424.16;4687724;30;20037;-83
2022/07/01 07:43:08;;;;;;;;;;;;;;;20.82;29.00;99420.59;4656675;30;19958;-86
2022/07/01 07:45:35;;;;;;;;;;;;;;;20.91;28.52;99417.94;4683957;30;19935;-86
2022/07/01 07:48:03;;;;;;;;;;;;;;;20.90;28.90;99425.38;4685832;30;19935;-86
2022/07/01 07:50:31;;;;;;;;;;;;;;;20.98;28.90;99429.34;4682068;30;19938;-85
2022/07/01 07:52:58;;;;;;;;;;;;;;;21.08;28.80;99431.09;4666713;30;19982;-86
2022/07/01 07:55:25;;;;;;;;;;;;;;;21.15;29.02;99431.50;4681912;30;19931;-86
2022/07/01 07:57:52;;;;;;;;;;;;;;;21.41;28.80;99426.34;4682393;30;19935;-86
2022/07/01 08:00:19;;;;;;;;;;;;;;;21.42;28.17;99438.94;4666806;30;19931;-84
2022/07/01 08:02:46;;;;;;;;;;;;;;;21.54;27.37;99436.50;4666331;30;19931;-86
2022/07/01 08:05:14;;;;;;;;;;;;;;;21.59;27.30;99439.13;4667122;30;20027;-87
2022/07/01 08:07:42;;;;;;;;;;;;;;;21.72;27.09;99437.47;4682025;30;19932;-86
2022/07/01 08:10:10;;;;;;;;;;;;;;;21.76;26.80;99434.94;4680393;30;19982;-86
2022/07/01 08:12:40;;;;;;;;;;;;;;;21.80;26.28;99433.19;4666779;30;19950;-86
2022/07/01 08:15:07;;;;;;;;;;;;;;;21.83;25.88;99441.66;4682211;30;20026;-86
2022/07/01 08:17:34;;;;;;;;;;;;;;;22.04;26.12;99444.75;4666702;30;20400;-86
2022/07/01 08:20:04;;;;;;;;;;;;;;;22.08;25.58;99451.25;4682470;30;19932;-85
2022/07/01 08:22:33;;;;;;;;;;;;;;;22.10;25.43;99450.13;4683579;30;20361;-86
2022/07/01 08:25:00;;;;;;;;;;;;;;;22.20;25.27;99450.72;4680815;30;20370;-84
2022/07/01 08:27:30;;;;;;;;;;;;;;;22.32;25.48;99455.69;4681153;30;19931;-86
2022/07/01 08:29:57;;;;;;;;;;;;;;;22.41;25.35;99456.56;4680876;30;19981;-83
2022/07/01 08:32:26;;;;;;;;;;;;;;;22.73;25.32;99462.91;4675662;30;20014;-86
2022/07/01 08:34:54;;;;;;;;;;;;;;;22.92;24.35;99449.75;4676423;30;19986;-84
2022/07/01 08:37:21;;;;;;;;;;;;;;;23.12;24.38;99453.94;4680302;30;19939;-84
2022/07/01 08:39:48;;;;;;;;;;;;;;;23.26;23.77;99453.81;4681591;30;19931;-84
2022/07/01 08:42:15;;;;;;;;;;;;;;;23.28;23.57;99459.03;4677983;30;20316;-84
2022/07/01 08:44:43;;;;;;;;;;;;;;;23.56;24.28;99451.34;4663198;30;20690;-87
2022/07/01 08:47:18;;;;;;;;;;;;;;;23.56;23.62;99454.09;4661589;30;19932;-85
2022/07/01 08:50:01;;;;;;;;;;;;;;;23.79;23.02;99458.38;4658967;30;19986;-85
2022/07/01 08:52:36;;;;;;;;;;;;;;;23.74;23.00;99463.25;4670600;30;19932;-84
2022/07/01 08:55:07;;;;;;;;;;;;;;;23.91;22.96;99468.78;4666666;30;19953;-86
2022/07/01 08:57:38;;;;;;;;;;;;;;;24.03;22.93;99465.41;4664671;30;19935;-84
2022/07/01 09:00:15;;;;;;;;;;;;;;;24.50;22.58;99462.81;4655643;30;20039;-87
2022/07/01 09:02:57;;;;;;;;;;;;;;;24.63;22.60;99467.34;4665056;30;20413;-84
2022/07/01 09:05:27;;;;;;;;;;;;;;;24.93;22.30;99470.22;4658501;30;20347;-84
2022/07/01 09:08:20;;;;;;;;;;;;;;;25.04;21.52;99465.97;4662874;30;19927;-86
2022/07/01 09:10:50;;;;;;;;;;;;;;;25.08;21.23;99463.34;4662743;30;19986;-85
2022/07/01 09:13:19;;;;;;;;;;;;;;;25.05;21.49;99467.59;4662306;30;20030;-84
2022/07/01 09:15:53;;;;;;;;;;;;;;;25.27;21.48;99471.28;4664109;30;20383;-84
2022/07/01 09:18:21;;;;;;;;;;;;;;;25.41;21.76;99468.28;4648167;30;19931;-85
2022/07/01 09:20:51;;;;;;;;;;;;;;;25.71;21.58;99472.69;4662637;30;20029;-84
2022/07/01 09:23:20;;;;;;;;;;;;;;;26.12;21.09;99459.25;4676331;30;19938;-84
2022/07/01 09:25:48;;;;;;;;;;;;;;;26.14;21.04;99468.84;4351512;30;9999708;-85
2022/07/01 09:28:23;;;;;;;;;;;;;;;26.40;21.50;99475.31;4664184;30;20066;-85
2022/07/01 09:33:46;;;;;;;;;;;;;;;26.51;21.20;99465.44;5008650;24;19931;-85
2022/07/01 09:36:16;;;;;;;;;;;;;;;26.73;20.83;99467.03;4695924;30;19970;-85
2022/07/01 09:38:47;;;;;;;;;;;;;;;26.85;20.81;99469.06;4710889;30;20021;-84
2022/07/01 09:41:14;;;;;;;;;;;;;;;27.11;20.31;99461.25;4692341;30;19941;-84
2022/07/01 09:43:41;;;;;;;;;;;;;;;27.20;20.29;99462.00;4679682;30;19930;-85
2022/07/01 09:46:09;;;;;;;;;;;;;;;27.28;20.07;99471.34;4706641;30;20292;-84
2022/07/01 09:48:36;;;;;;;;;;;;;;;27.19;19.81;99479.78;4685811;30;19939;-83
2022/07/01 09:51:04;;;;;;;;;;;;;;;27.04;19.79;99483.16;4693911;30;19938;-83
2022/07/01 09:53:35;;;;;;;;;;;;;;;27.30;19.87;99471.00;4699568;30;20606;-84
2022/07/01 09:56:02;;;;;;;;;;;;;;;27.67;18.95;99466.25;4702195;30;19938;-84
2022/07/01 09:58:32;;;;;;;;;;;;;;;27.82;18.91;99465.56;4698401;30;20064;-85
2022/07/01 10:01:02;;;;;;;;;;;;;;;28.10;18.68;99467.59;4706706;30;19930;-83
2022/07/01 10:03:39;;;;;;;;;;;;;;;28.15;18.23;99464.59;4696308;30;19931;-86
2022/07/01 10:06:14;;;;;;;;;;;;;;;27.82;17.80;99471.13;4667761;30;20366;-85
2022/07/01 10:08:56;;;;;;;;;;;;;;;28.03;18.52;99465.44;4699233;30;19931;-84
2022/07/01 10:11:23;;;;;;;;;;;;;;;28.03;18.34;99459.06;4688436;30;20026;-85
2022/07/01 10:13:50;;;;;;;;;;;;;;;28.21;17.85;99474.28;4709470;30;19931;-86
2022/07/01 10:16:19;;;;;;;;;;;;;;;28.40;18.26;99468.09;4709526;30;20080;-84
2022/07/01 10:18:46;;;;;;;;;;;;;;;28.47;18.03;99468.31;4680346;30;19989;-85
2022/07/01 10:21:28;;;;;;;;;;;;;;;28.73;18.19;99467.06;4701315;30;20029;-85
2022/07/01 10:24:17;;;;;;;;;;;;;;;29.03;18.15;99459.13;4700779;30;19930;-84
2022/07/01 10:26:44;;;;;;;;;;;;;;;29.33;17.68;99467.88;4703167;30;19976;-85
2022/07/01 10:29:30;;;;;;;;;;;;;;;28.95;17.49;99468.44;4699688;30;19935;-85
2022/07/01 10:32:13;;;;;;;;;;;;;;;29.01;17.73;99468.97;4699800;30;19930;-85
2022/07/01 10:34:59;;;;;;;;;;;;;;;29.38;17.49;99481.50;4687274;30;19931;-84
2022/07/01 10:37:26;;;;;;;;;;;;;;;28.65;17.76;99470.81;4685520;30;19938;-83
2022/07/01 10:39:53;;;;;;;;;;;;;;;28.80;18.17;99483.91;4678796;30;19935;-84
2022/07/01 10:42:20;;;;;;;;;;;;;;;29.17;18.03;99469.84;4689305;30;19931;-83
2022/07/01 10:45:11;;;;;;;;;;;;;;;29.51;17.83;99478.63;4672817;30;19931;-84
2022/07/01 10:47:39;;;;;;;;;;;;;;;29.75;17.56;99469.28;4702192;30;20029;-83
2022/07/01 10:50:07;;;;;;;;;;;;;;;29.89;17.40;99471.59;4692771;30;20307;-84
2022/07/01 10:52:34;;;;;;;;;;;;;;;30.06;17.03;99467.59;4686648;30;19945;-84
2022/07/01 10:55:03;;;;;;;;;;;;;;;30.07;17.04;99461.66;4710337;30;20300;-83
2022/07/01 10:57:55;;;;;;;;;;;;;;;30.16;17.08;99467.81;4704346;30;20054;-84
2022/07/01 11:00:29;;;;;;;;;;;;;;;30.18;16.71;99471.06;4705914;30;20132;-84
2022/07/01 11:02:57;;;;;;;;;;;;;;;30.89;16.64;99465.31;4699264;30;19937;-83
2022/07/01 11:05:25;;;;;;;;;;;;;;;30.47;16.17;99466.09;4683700;30;19951;-82
2022/07/01 11:07:54;;;;;;;;;;;;;;;30.40;16.63;99463.16;4698749;30;19930;-82
2022/07/01 11:10:21;;;;;;;;;;;;;;;30.56;16.77;99465.84;4683545;30;20030;-81
2022/07/01 11:12:56;;;;;;;;;;;;;;;30.72;16.67;99461.00;4699116;30;19938;-84
2022/07/01 11:15:23;;;;;;;;;;;;;;;30.72;16.58;99463.00;4669195;30;20008;-84
2022/07/01 11:17:50;;;;;;;;;;;;;;;30.95;16.53;99455.50;4681664;30;20304;-83
2022/07/01 11:20:17;;;;;;;;;;;;;;;31.09;16.26;99452.97;4704857;30;19966;-83
2022/07/01 11:22:49;;;;;;;;;;;;;;;31.44;15.96;99454.75;4709381;30;19931;-83
2022/07/01 11:25:17;;;;;;;;;;;;;;;31.27;16.03;99460.81;4716097;30;19984;-82
2022/07/01 11:27:50;;;;;;;;;;;;;;;30.78;16.00;99461.50;4686439;30;19966;-84
2022/07/01 11:30:18;;;;;;;;;;;;;;;30.80;16.21;99462.75;4695953;30;19931;-83
2022/07/01 11:32:53;;;;;;;;;;;;;;;30.93;15.82;99455.06;4698733;30;20333;-83
2022/07/01 11:41:10;;;;;;;;;;;;;;;31.85;15.94;99452.16;4704083;30;20041;-83
2022/07/01 11:43:57;;;;;;;;;;;;;;;31.81;15.48;99465.28;4701588;30;20299;-84
2022/07/01 11:46:25;;;;;;;;;;;;;;;31.89;15.13;99468.97;4696878;30;20031;-83
2022/07/01 11:48:53;;;;;;;;;;;;;;;32.33;14.68;99476.75;4698612;30;19970;-83
2022/07/01 11:51:21;;;;;;;;;;;;;;;32.33;14.76;99483.16;4697035;30;20033;-81
2022/07/01 11:54:13;;;;;;;;;;;;;;;32.58;14.45;99477.91;4691797;30;19931;-85
2022/07/01 11:56:48;;;;;;;;;;;;;;;32.28;13.97;99469.53;4698498;30;19971;-85
2022/07/01 11:59:17;;;;;;;;;;;;;;;31.90;13.68;99471.38;4698436;30;20404;-84
2022/07/01 12:01:50;;;;;;;;;;;;;;;32.02;14.12;99480.75;4688978;30;19935;-83
2022/07/01 12:04:17;;;;;;;;;;;;;;;32.45;13.80;99478.50;4701492;30;19938;-83
2022/07/01 12:06:44;;;;;;;;;;;;;;;33.09;14.08;99479.25;4702896;30;19931;-85
2022/07/01 12:09:15;;;;;;;;;;;;;;;33.80;13.92;99472.66;4770725;24;20317;-83
2022/07/01 12:11:46;;;;;;;;;;;;;;;33.89;12.94;99476.72;4716636;30;19930;-83
2022/07/01 12:14:25;;;;;;;;;;;;;;;33.86;12.75;99471.91;4733222;30;19960;-84
2022/07/01 12:16:53;;;;;;;;;;;;;;;33.35;13.06;99480.28;4713915;30;20532;-83
2022/07/01 12:19:31;;;;;;;;;;;;;;;32.85;13.50;99474.22;4730646;30;19988;-85
2022/07/01 12:21:58;;;;;;;;;;;;;;;33.13;13.27;99477.31;4739875;30;19934;-83
2022/07/01 12:25:15;;;;;;;;;;;;;;;33.00;13.10;99482.34;4744373;30;20060;-83
2022/07/01 12:27:50;;;;;;;;;;;;;;;33.31;13.07;99488.66;4717997;30;19941;-85
2022/07/01 12:30:23;;;;;;;;;;;;;;;33.20;12.71;99494.16;4733920;30;20035;-83
2022/07/01 12:32:51;;;;;;;;;;;;;;;33.23;12.67;99496.19;4742134;30;19940;-83
2022/07/01 12:35:35;;;;;;;;;;;;;;;33.35;12.54;99491.47;4750446;30;19930;-84
2022/07/01 12:38:05;;;;;;;;;;;;;;;33.53;12.35;99481.25;4738911;30;19930;-85
2022/07/01 12:40:32;;;;;;;;;;;;;;;33.40;12.51;99485.53;4732026;30;20433;-83
2022/07/01 12:43:06;;;;;;;;;;;;;;;33.30;12.68;99489.84;4741974;30;19934;-83
2022/07/01 12:45:36;;;;;;;;;;;;;;;34.22;12.41;99493.72;4748204;30;19930;-83
2022/07/01 12:48:04;;;;;;;;;;;;;;;34.37;12.76;99486.19;4724827;30;19930;-85
2022/07/01 12:50:31;;;;;;;;;;;;;;;34.15;12.76;99499.28;4739020;30;19930;-83
2022/07/01 12:53:02;;;;;;;;;;;;;;;33.91;12.96;99495.94;4745884;30;19930;-86
2022/07/01 12:55:32;;;;;;;;;;;;;;;33.84;13.00;99493.09;4726010;30;19988;-84
2022/07/01 12:58:00;;;;;;;;;;;;;;;34.47;12.95;99503.03;4740890;30;19934;-84
2022/07/01 13:00:28;;;;;;;;;;;;;;;33.98;13.03;99501.59;4729478;30;20391;-86
2022/07/01 13:02:56;;;;;;;;;;;;;;;34.11;13.15;99496.47;4739852;30;19934;-85
2022/07/01 13:05:30;;;;;;;;;;;;;;;34.46;13.12;99509.84;4731524;30;19980;-84
2022/07/01 13:07:57;;;;;;;;;;;;;;;34.56;12.77;99510.28;4718269;30;19930;-83
2022/07/01 13:10:27;;;;;;;;;;;;;;;34.90;12.80;99506.00;4741056;30;20383;-84
2022/07/01 13:12:54;;;;;;;;;;;;;;;34.95;12.73;99516.84;4750293;30;20356;-85
2022/07/01 13:15:21;;;;;;;;;;;;;;;34.47;12.68;99511.44;4734085;30;19930;-84
2022/07/01 13:17:48;;;;;;;;;;;;;;;34.50;12.85;99515.47;4749974;30;19930;-83
2022/07/01 13:20:17;;;;;;;;;;;;;;;34.00;13.44;99503.97;4725662;30;19934;-84
2022/07/01 13:22:44;;;;;;;;;;;;;;;34.39;13.13;99509.03;4702573;30;19930;-83
2022/07/01 13:25:12;;;;;;;;;;;;;;;35.23;13.13;99500.50;4732670;30;20029;-84
2022/07/01 13:27:39;;;;;;;;;;;;;;;35.87;12.87;99500.47;4716619;30;19930;-83
2022/07/01 13:30:06;;;;;;;;;;;;;;;36.35;12.37;99504.78;4734535;30;19937;-86
2022/07/01 13:33:01;;;;;;;;;;;;;;;36.13;12.52;99496.44;4725201;30;19930;-86
2022/07/01 13:35:28;;;;;;;;;;;;;;;36.25;12.27;99503.63;4728364;30;19930;-85
2022/07/01 13:37:56;;;;;;;;;;;;;;;35.50;12.24;99509.31;4717295;30;20407;-83
2022/07/01 13:40:23;;;;;;;;;;;;;;;35.68;12.05;99514.94;4739936;30;19931;-85
2022/07/01 13:42:50;;;;;;;;;;;;;;;35.67;11.96;99511.31;4741960;30;19936;-85
2022/07/01 13:45:24;;;;;;;;;;;;;;;35.83;11.64;99515.72;4733836;30;19937;-84